Time;durP1;ratioP1;P1;durP2;ratioP2;P2;SDS_P1;SDS_P2;PMS_P1;PMS_P2;Temp;Humidity;BMP_temperature;BMP_pressure;BME280_temperature;BME280_humidity;BME280_pressure;Samples;Min_cycle;Max_cycle;Signal;HPM_P1;HPM_P2
2021/12/17 00:00:45;;;;;;;15.80;1.73;;;;;;;2.14;100.00;102917.66;4877718;28;20121;-80
2021/12/17 00:03:21;;;;;;;15.77;2.50;;;3.90;99.90;;;2.29;100.00;102927.53;4876855;28;20042;-81
2021/12/17 00:08:20;;;;;;;14.60;2.33;;;4.00;99.90;;;2.32;100.00;102932.81;4897181;28;20094;-82
2021/12/17 00:10:55;;;;;;;19.23;2.22;;;4.10;99.90;;;2.33;100.00;102932.84;4879624;28;20019;-81
2021/12/17 00:13:21;;;;;;;25.55;1.98;;;4.20;99.90;;;2.47;100.00;102935.78;4910239;28;20027;-81
2021/12/17 00:15:47;;;;;;;17.05;2.83;;;4.20;99.90;;;2.45;100.00;102917.53;4922622;28;20046;-81
2021/12/17 00:18:25;;;;;;;25.38;2.22;;;4.30;99.90;;;2.49;100.00;102921.06;4909467;28;20052;-80
2021/12/17 00:48:53;;;;;;;28.35;2.20;;;3.90;99.90;;;2.14;100.00;102947.16;4908172;28;20610;-79
2021/12/17 00:54:22;;;;;;;22.05;2.13;;;3.90;99.90;;;2.11;100.00;102936.66;4874777;28;20184;-80
2021/12/17 00:56:54;;;;;;;20.48;2.72;;;3.90;99.90;;;2.11;100.00;102941.88;4870852;28;20638;-80
2021/12/17 00:59:28;;;;;;;18.30;2.38;;;3.90;99.90;;;2.01;100.00;102939.91;4964924;28;20451;-80
2021/12/17 01:02:03;;;;;;;18.58;2.72;;;3.80;99.90;;;2.02;100.00;102933.84;4891228;28;20045;-80
2021/12/17 01:04:30;;;;;;;22.25;2.63;;;3.80;99.90;;;1.91;100.00;102930.13;4860294;28;20802;-80
2021/12/17 01:06:55;;;;;;;14.27;2.63;;;3.70;99.90;;;1.97;100.00;102938.06;4911508;28;20082;-81
2021/12/17 01:09:26;;;;;;;18.50;1.77;;;3.70;99.90;;;1.82;100.00;102931.66;4884896;28;20549;-81
2021/12/17 01:11:57;;;;;;;24.23;2.88;;;3.70;99.90;;;1.99;100.00;102952.84;4894766;28;20034;-80
2021/12/17 01:14:27;;;;;;;30.63;2.95;;;3.70;99.90;;;1.93;100.00;102938.84;4912995;28;20112;-80
2021/12/17 01:16:54;;;;;;;27.98;2.40;;;3.70;99.90;;;1.93;100.00;102937.09;4886563;28;20092;-80
2021/12/17 01:19:45;;;;;;;16.67;1.98;;;3.70;99.90;;;1.91;100.00;102930.13;4873425;28;20388;-80
2021/12/17 01:25:04;;;;;;;23.63;2.92;;;3.80;99.90;;;1.93;100.00;102942.31;4894506;28;20030;-80
2021/12/17 01:35:46;;;;;;;19.15;2.40;;;3.80;99.90;;;2.12;100.00;102955.75;4882941;28;20110;-81
2021/12/17 01:43:47;;;;;;;17.73;2.00;;;4.20;99.90;;;2.44;100.00;102983.41;4899417;28;21167;-80
2021/12/17 01:46:22;;;;;;;28.80;2.58;;;;;;;2.59;100.00;102988.06;4854335;28;20035;-81
2021/12/17 01:49:22;;;;;;;19.95;3.55;;;4.40;99.90;;;2.72;100.00;102993.53;4911410;28;20023;-81
2021/12/17 02:00:11;;;;;;;42.28;3.97;;;;;;;3.02;100.00;102991.63;4909024;28;20041;-81
2021/12/17 02:02:45;;;;;;;25.60;3.42;;;4.70;99.90;;;2.99;100.00;102975.91;4915163;28;20035;-80
2021/12/17 02:05:17;;;;;;;16.20;3.03;;;4.70;99.90;;;3.03;100.00;102969.94;4883881;28;20044;-80
2021/12/17 02:07:45;;;;;;;20.63;2.15;;;4.70;99.90;;;2.98;100.00;102955.06;4894109;28;20015;-80
2021/12/17 02:32:13;;;;;;;19.23;2.65;;;4.70;99.90;;;3.01;100.00;102943.00;4914566;28;20066;-80
2021/12/17 02:37:34;;;;;;;22.63;3.03;;;;;;;2.96;100.00;102921.22;4895499;28;20047;-80
2021/12/17 02:45:36;;;;;;;28.38;3.85;;;4.70;99.90;;;2.97;100.00;102911.66;4906980;28;20453;-80
2021/12/17 02:48:14;;;;;;;26.40;4.40;;;4.80;99.90;;;3.00;100.00;102904.81;4880837;28;20395;-80
2021/12/17 02:50:55;;;;;;;33.45;4.03;;;4.70;99.90;;;3.07;100.00;102913.63;4876334;28;20032;-81
2021/12/17 02:53:23;;;;;;;13.68;2.92;;;4.80;99.90;;;3.12;100.00;102921.50;4885245;28;20105;-80
2021/12/17 02:56:00;;;;;;;21.40;3.20;;;4.80;99.90;;;3.14;100.00;102922.41;4901386;28;20062;-81
2021/12/17 02:58:31;;;;;;;24.80;3.65;;;4.90;99.90;;;3.19;100.00;102902.53;4903154;28;20381;-80
2021/12/17 03:01:00;;;;;;;23.58;3.70;;;;;;;3.19;100.00;102910.34;4890348;28;20034;-81
2021/12/17 03:03:31;;;;;;;35.22;4.65;;;5.00;99.90;;;3.29;100.00;102923.56;4901896;28;21104;-80
2021/12/17 03:05:58;;;;;;;17.58;3.63;;;5.10;99.90;;;3.36;100.00;102924.56;4881363;28;20037;-81
2021/12/17 03:08:33;;;;;;;39.80;4.22;;;5.10;99.90;;;3.40;100.00;102935.94;4895262;28;20062;-80
2021/12/17 03:11:01;;;;;;;24.75;4.47;;;5.20;99.90;;;3.48;100.00;102932.59;4896694;28;20131;-80
2021/12/17 03:13:38;;;;;;;23.85;4.43;;;5.20;99.90;;;3.50;100.00;102924.84;4920414;28;20502;-80
2021/12/17 03:16:23;;;;;;;28.15;4.72;;;;;;;3.57;100.00;102931.91;4932974;29;20559;-81
2021/12/17 03:24:22;;;;;;;25.05;4.47;;;5.40;99.90;;;3.66;100.00;102939.00;4818440;28;20036;-80
2021/12/17 03:26:55;;;;;;;25.65;3.65;;;5.40;99.90;;;3.67;100.00;102940.72;4903109;28;20031;-81
2021/12/17 03:29:21;;;;;;;23.27;4.90;;;5.40;99.90;;;3.66;100.00;102937.25;4868855;28;20032;-81
2021/12/17 03:31:47;;;;;;;36.05;4.30;;;5.40;99.90;;;3.68;100.00;102937.28;4899677;28;20046;-80
2021/12/17 03:34:21;;;;;;;37.42;6.15;;;5.40;99.90;;;3.68;100.00;102937.28;4880063;28;20046;-81
2021/12/17 03:36:53;;;;;;;32.85;4.95;;;;;;;3.70;100.00;102922.56;4890588;28;20060;-81
2021/12/17 03:39:27;;;;;;;21.60;4.78;;;5.40;99.90;;;3.73;100.00;102927.81;4879904;28;20046;-80
2021/12/17 03:41:55;;;;;;;23.17;5.13;;;5.40;99.90;;;3.72;100.00;102920.88;4893293;28;20118;-80
2021/12/17 03:44:22;;;;;;;24.55;4.80;;;5.40;99.90;;;3.69;100.00;102920.78;4910531;28;20051;-80
2021/12/17 03:46:52;;;;;;;18.98;4.03;;;;;;;3.70;100.00;102917.34;4888697;28;20037;-81
2021/12/17 03:49:21;;;;;;;30.20;5.28;;;5.40;99.90;;;3.70;100.00;102909.53;4924953;28;20039;-80
2021/12/17 03:51:51;;;;;;;28.25;4.80;;;5.40;99.90;;;3.69;100.00;102907.78;4913194;28;20046;-80
2021/12/17 03:54:21;;;;;;;28.33;5.38;;;5.40;99.90;;;3.68;100.00;102906.91;4856085;28;20042;-80
2021/12/17 03:56:47;;;;;;;21.60;4.82;;;5.40;99.90;;;3.68;100.00;102900.81;4897914;28;20125;-81
2021/12/17 03:59:12;;;;;;;22.35;4.60;;;5.40;99.90;;;3.68;100.00;102885.19;4899806;28;20103;-80
2021/12/17 04:01:40;;;;;;;21.33;3.25;;;5.40;99.90;;;3.69;100.00;102913.88;4892278;28;20039;-80
2021/12/17 04:04:12;;;;;;;38.58;5.38;;;5.40;99.90;;;3.70;100.00;102897.38;4899395;28;20042;-79
2021/12/17 04:06:39;;;;;;;19.80;4.80;;;5.40;99.90;;;3.75;100.00;102904.41;4881685;28;20031;-81
2021/12/17 04:09:05;;;;;;;15.35;3.85;;;5.40;99.90;;;3.76;100.00;102901.81;4901374;28;20039;-80
2021/12/17 04:11:32;;;;;;;30.80;4.53;;;5.50;99.90;;;3.75;100.00;102894.84;4880592;28;20027;-81
2021/12/17 04:13:58;;;;;;;23.38;3.67;;;5.50;99.90;;;3.79;100.00;102893.19;4933126;23;20053;-80
2021/12/17 04:16:31;;;;;;;16.17;3.78;;;5.50;99.90;;;3.74;100.00;102887.91;4945490;28;20461;-79
2021/12/17 04:18:59;;;;;;;14.18;3.38;;;5.50;99.90;;;3.74;100.00;102895.72;4908103;28;20452;-81
2021/12/17 04:21:26;;;;;;;20.50;4.07;;;5.50;99.90;;;3.75;100.00;102880.94;4922565;28;20038;-80
2021/12/17 04:23:55;;;;;;;16.25;4.32;;;;;;;3.76;100.00;102883.59;4931038;28;20051;-81
2021/12/17 04:26:26;;;;;;;14.00;3.05;;;5.50;99.90;;;3.76;100.00;102883.59;4915684;28;20054;-80
2021/12/17 04:28:53;;;;;;;25.45;4.30;;;5.50;99.90;;;3.75;100.00;102878.34;4912353;28;20122;-80
2021/12/17 04:31:28;;;;;;;20.75;3.72;;;5.50;99.90;;;3.77;100.00;102879.25;4917671;28;20040;-80
2021/12/17 04:33:54;;;;;;;21.75;3.28;;;5.50;99.90;;;3.77;100.00;102880.13;4921296;28;20041;-81
2021/12/17 04:36:26;;;;;;;10.63;2.75;;;5.40;99.90;;;3.76;100.00;102885.28;4911961;28;20044;-80
2021/12/17 04:38:53;;;;;;;28.42;3.72;;;;;;;3.74;100.00;102874.88;4876892;28;20026;-80
2021/12/17 04:41:40;;;;;;;27.30;3.63;;;5.50;99.90;;;3.73;100.00;102874.84;4933867;28;20034;-80
2021/12/17 04:44:21;;;;;;;17.88;3.08;;;5.40;99.90;;;3.72;100.00;102879.19;4908271;28;20493;-80
2021/12/17 04:57:38;;;;;;;17.73;5.03;;;5.50;99.90;;;3.72;100.00;102900.03;4928239;28;20034;-80
2021/12/17 05:00:20;;;;;;;16.95;2.92;;;5.50;99.90;;;3.74;100.00;102902.63;4880847;28;20394;-80
2021/12/17 05:02:52;;;;;;;27.25;5.80;;;;;;;3.74;100.00;102897.41;4903446;28;20097;-81
2021/12/17 05:05:22;;;;;;;32.85;4.00;;;5.50;99.90;;;3.76;100.00;102906.13;4902011;28;20037;-80
2021/12/17 05:07:54;;;;;;;37.25;4.03;;;5.50;99.90;;;3.73;100.00;102906.97;4910088;28;20502;-81
2021/12/17 05:18:32;;;;;;;18.52;3.70;;;5.50;99.90;;;3.76;100.00;102920.06;4906695;28;20036;-80
2021/12/17 05:21:06;;;;;;;21.67;3.42;;;5.50;99.90;;;3.76;100.00;102909.66;4864467;28;20093;-81
2021/12/17 05:23:42;;;;;;;23.88;3.60;;;5.50;99.90;;;3.76;100.00;102924.38;4879431;28;20027;-80
2021/12/17 05:26:24;;;;;;;16.80;2.97;;;5.50;99.90;;;3.76;100.00;102916.56;4899226;28;20046;-80
2021/12/17 05:28:51;;;;;;;16.23;2.78;;;5.50;99.90;;;3.79;100.00;102917.50;4921900;28;20037;-80
2021/12/17 05:31:21;;;;;;;25.92;3.60;;;5.50;99.90;;;3.76;100.00;102919.16;4911661;28;20024;-80
2021/12/17 05:33:53;;;;;;;19.08;4.03;;;5.50;99.90;;;3.77;100.00;102914.00;4895924;28;20033;-80
2021/12/17 05:36:30;;;;;;;25.05;3.70;;;5.60;99.90;;;3.81;100.00;102920.16;4925542;28;20081;-80
2021/12/17 05:38:57;;;;;;;28.45;3.70;;;5.60;99.90;;;3.81;100.00;102928.84;4897574;28;20086;-80
2021/12/17 05:41:23;;;;;;;29.40;4.22;;;5.60;99.90;;;3.85;100.00;102922.81;4930677;28;20077;-80
2021/12/17 05:43:55;;;;;;;12.90;3.05;;;;;;;3.82;100.00;102922.78;4944507;28;20488;-80
2021/12/17 05:46:36;;;;;;;17.83;3.47;;;5.60;99.90;;;3.81;100.00;102914.94;4917976;28;20026;-80
2021/12/17 05:49:03;;;;;;;25.98;3.55;;;5.60;99.90;;;3.83;100.00;102924.53;4957333;28;20042;-80
2021/12/17 05:51:29;;;;;;;30.52;3.90;;;5.60;99.90;;;3.82;100.00;102920.19;4936484;28;20095;-80
2021/12/17 05:53:55;;;;;;;20.92;4.25;;;5.60;99.90;;;3.85;100.00;102927.16;4902844;28;20030;-81
2021/12/17 05:56:22;;;;;;;38.15;4.35;;;5.60;99.90;;;3.84;100.00;102921.03;4930610;28;20157;-80
2021/12/17 05:58:57;;;;;;;21.58;3.83;;;5.60;99.90;;;3.85;100.00;102909.78;4884733;28;20038;-80
2021/12/17 06:01:23;;;;;;;30.45;3.53;;;5.60;99.90;;;3.87;100.00;102908.09;4860029;28;20031;-80
2021/12/17 06:03:49;;;;;;;24.73;3.33;;;5.60;99.90;;;3.89;100.00;102915.94;4975492;28;20054;-80
2021/12/17 06:06:30;;;;;;;25.58;2.88;;;5.70;99.90;;;3.92;100.00;102921.19;4893245;28;20491;-80
2021/12/17 06:09:05;;;;;;;23.90;3.78;;;5.70;99.90;;;3.92;100.00;102923.78;4933828;28;20443;-80
2021/12/17 06:11:32;;;;;;;13.10;2.42;;;5.70;99.90;;;3.92;100.00;102915.09;4901432;28;20035;-80
2021/12/17 06:14:06;;;;;;;20.48;3.03;;;5.70;99.90;;;3.93;100.00;102919.44;4926762;28;20050;-80
2021/12/17 06:16:33;;;;;;;10.82;2.83;;;5.70;99.90;;;3.99;100.00;102909.13;4929283;28;20022;-81
2021/12/17 06:19:02;;;;;;;33.58;4.88;;;5.70;99.90;;;3.92;100.00;102881.22;4959485;28;20109;-80
2021/12/17 06:21:35;;;;;;;30.10;3.25;;;5.70;99.90;;;3.94;100.00;102880.38;4902476;28;20164;-80
2021/12/17 06:24:01;;;;;;;14.35;2.90;;;5.70;99.90;;;3.92;100.00;102884.69;4891565;28;20562;-80
2021/12/17 06:26:28;;;;;;;20.20;4.15;;;5.70;99.90;;;3.95;100.00;102902.09;4883040;28;20023;-81
2021/12/17 06:28:54;;;;;;;28.90;4.38;;;5.70;99.90;;;3.95;100.00;102891.69;4918614;28;20535;-81
2021/12/17 06:31:29;;;;;;;23.98;3.33;;;5.70;99.90;;;4.01;100.00;102899.59;4913115;28;20030;-80
2021/12/17 06:33:55;;;;;;;19.40;2.88;;;5.70;99.90;;;3.98;100.00;102902.19;4919265;28;20026;-80
2021/12/17 06:36:21;;;;;;;21.67;3.67;;;5.70;99.90;;;3.99;100.00;102898.69;4939748;28;20014;-81
2021/12/17 06:38:56;;;;;;;28.67;4.32;;;5.70;99.90;;;4.01;100.00;102892.66;4920954;28;20035;-81
2021/12/17 06:41:21;;;;;;;24.42;2.88;;;5.80;99.90;;;4.04;100.00;102891.81;4916733;28;20027;-81
2021/12/17 06:43:47;;;;;;;22.08;2.92;;;5.70;99.90;;;3.97;100.00;102875.22;4912645;28;20030;-80
2021/12/17 06:48:55;;;;;;;13.07;2.67;;;5.70;99.90;;;3.96;100.00;102873.47;4918461;28;20060;-79
2021/12/17 07:10:35;;;;;;;19.33;3.03;;;5.70;99.90;;;3.94;100.00;102884.72;4918443;28;20490;-81
2021/12/17 07:21:29;;;;;;;25.88;3.75;;;5.60;99.90;;;3.84;100.00;102905.41;4917953;28;20042;-80
2021/12/17 07:34:44;;;;;;;23.83;2.95;;;5.50;99.90;;;3.88;100.00;102903.75;4912510;28;20061;-80
2021/12/17 07:39:43;;;;;;;28.10;2.75;;;5.60;99.90;;;3.86;100.00;102911.53;4934064;28;20056;-81
2021/12/17 07:42:09;;;;;;;25.42;4.53;;;5.60;99.90;;;3.85;100.00;102922.81;4878660;28;20051;-81
2021/12/17 07:44:36;;;;;;;22.23;3.78;;;5.60;99.90;;;3.89;100.00;102915.94;4909423;28;20034;-81
2021/12/17 07:47:04;;;;;;;23.83;3.58;;;5.60;99.90;;;3.90;100.00;102917.69;4897476;28;20382;-81
2021/12/17 07:49:33;;;;;;;20.83;3.22;;;5.60;99.90;;;3.92;100.00;102912.50;4908771;28;20094;-80
2021/12/17 07:51:58;;;;;;;33.97;4.72;;;5.60;99.90;;;3.88;100.00;102904.63;4928641;28;20025;-81
2021/12/17 07:54:24;;;;;;;20.45;3.22;;;5.60;99.90;;;3.92;100.00;102905.56;4896591;28;20096;-81
2021/12/17 07:56:50;;;;;;;29.35;3.10;;;5.60;99.90;;;3.94;100.00;102902.97;4906212;28;20112;-81
2021/12/17 07:59:17;;;;;;;19.98;3.35;;;5.60;99.90;;;3.91;100.00;102914.25;4904197;28;20031;-81
2021/12/17 08:01:51;;;;;;;26.88;3.50;;;5.70;99.90;;;3.95;100.00;102908.19;4887300;28;20021;-80
2021/12/17 08:04:17;;;;;;;24.80;3.85;;;5.60;99.90;;;3.93;100.00;102919.44;4894670;28;20034;-80
2021/12/17 08:06:44;;;;;;;28.02;3.70;;;5.60;99.90;;;3.89;100.00;102909.00;4909497;28;20087;-80
2021/12/17 08:09:10;;;;;;;16.15;3.25;;;5.60;99.90;;;3.93;100.00;102914.25;4924450;28;20026;-80
2021/12/17 08:11:42;;;;;;;31.30;3.67;;;5.60;99.90;;;3.95;100.00;102907.31;4894735;28;20028;-80
2021/12/17 08:14:13;;;;;;;23.48;4.00;;;5.70;99.90;;;3.93;100.00;102911.63;4858816;28;20047;-80
2021/12/17 08:27:23;;;;;;;24.98;4.25;;;5.70;99.90;;;4.00;100.00;102929.16;4936621;28;20051;-81
2021/12/17 08:29:56;;;;;;;16.63;3.67;;;5.70;99.90;;;3.98;100.00;102929.13;4934956;28;20034;-80
2021/12/17 08:32:29;;;;;;;23.38;3.65;;;5.70;99.90;;;3.99;100.00;102935.19;4913775;28;20036;-81
2021/12/17 08:34:56;;;;;;;19.42;3.65;;;5.70;99.90;;;3.95;100.00;102934.25;4911435;28;20853;-80
2021/12/17 08:37:22;;;;;;;23.65;3.58;;;5.70;99.90;;;3.98;100.00;102936.94;4910596;28;20031;-81
2021/12/17 08:39:48;;;;;;;17.20;3.35;;;5.70;99.90;;;3.99;100.00;102933.47;4904401;28;20086;-81
2021/12/17 08:42:14;;;;;;;26.63;3.15;;;5.70;99.90;;;4.04;100.00;102930.91;4899141;28;20461;-81
2021/12/17 08:44:43;;;;;;;22.23;3.33;;;5.80;99.90;;;4.03;100.00;102935.25;4896462;28;20465;-81
2021/12/17 08:47:10;;;;;;;14.52;2.97;;;5.80;99.90;;;4.04;100.00;102936.13;4901531;28;20039;-81
2021/12/17 08:49:40;;;;;;;31.95;3.88;;;5.70;99.90;;;4.01;100.00;102923.06;4906691;28;20037;-82
2021/12/17 08:52:11;;;;;;;19.55;3.33;;;5.70;99.90;;;4.07;100.00;102933.59;4918300;28;20022;-81
2021/12/17 08:54:37;;;;;;;24.75;3.47;;;5.80;99.90;;;4.04;100.00;102928.31;4898106;28;20030;-80
2021/12/17 08:57:04;;;;;;;14.73;2.97;;;;;;;4.06;100.00;102930.13;4902280;28;20096;-80
2021/12/17 08:59:30;;;;;;;18.60;3.67;;;5.80;99.90;;;4.04;100.00;102930.91;4947878;28;20503;-81
2021/12/17 09:01:56;;;;;;;27.23;3.70;;;5.80;99.90;;;4.07;100.00;102933.59;4923834;28;20077;-80
2021/12/17 09:04:23;;;;;;;27.88;4.95;;;5.80;99.90;;;4.06;100.00;102922.28;4886140;28;20033;-81
2021/12/17 09:06:58;;;;;;;20.95;3.47;;;5.80;99.90;;;4.02;100.00;102923.09;4871429;28;22730;-81
2021/12/17 09:09:24;;;;;;;17.38;3.22;;;5.70;99.90;;;4.04;100.00;102920.50;4914438;28;20049;-81
2021/12/17 09:11:57;;;;;;;12.70;2.45;;;5.80;99.90;;;4.00;100.00;102922.19;4980997;28;20043;-81
2021/12/17 09:14:23;;;;;;;20.02;3.10;;;5.80;99.90;;;4.10;100.00;102929.31;4929556;28;20805;-81
2021/12/17 09:16:51;;;;;;;12.27;2.55;;;5.80;99.90;;;4.10;100.00;102929.31;4902869;28;20129;-81
2021/12/17 09:19:23;;;;;;;21.60;2.80;;;5.80;99.90;;;4.06;100.00;102924.00;4912405;28;20031;-81
2021/12/17 09:21:52;;;;;;;17.15;3.20;;;5.80;99.90;;;4.04;100.00;102921.41;4877665;28;20499;-81
2021/12/17 09:24:19;;;;;;;28.25;4.03;;;5.80;99.90;;;4.12;100.00;102929.31;4910816;28;20090;-80
2021/12/17 09:26:45;;;;;;;25.60;4.07;;;5.80;99.90;;;4.07;100.00;102926.66;4885269;28;20152;-82
2021/12/17 09:29:19;;;;;;;19.15;3.35;;;5.80;99.90;;;4.08;100.00;102925.81;4911693;28;20031;-81
2021/12/17 09:31:48;;;;;;;18.13;3.00;;;5.80;99.90;;;4.07;100.00;102918.81;4892391;28;20047;-85
2021/12/17 09:34:23;;;;;;;25.60;3.75;;;5.80;99.90;;;4.09;100.00;102926.69;4886554;28;20074;-83
2021/12/17 09:36:49;;;;;;;28.60;3.92;;;5.80;99.90;;;4.13;100.00;102933.69;4875997;28;20039;-81
2021/12/17 09:39:17;;;;;;;28.98;2.85;;;;;;;4.11;100.00;102918.00;4888990;28;20038;-83
2021/12/17 09:41:50;;;;;;;18.63;1.77;;;5.80;99.90;;;4.13;100.00;102912.84;4923509;28;20077;-82
2021/12/17 09:44:22;;;;;;;22.30;2.65;;;7.10;99.90;;;4.12;100.00;102916.28;4889977;28;20031;-82
2021/12/17 09:46:57;;;;;;;22.10;3.30;;;;;;;4.15;100.00;102926.78;4935259;28;20088;-82
2021/12/17 09:49:24;;;;;;;22.00;4.03;;;5.90;99.90;;;4.15;100.00;102910.22;4911420;28;20058;-82
2021/12/17 09:51:56;;;;;;;19.98;2.83;;;5.80;99.90;;;4.11;100.00;102901.50;4941550;28;20395;-81
2021/12/17 09:54:26;;;;;;;22.90;3.70;;;;;;;4.14;100.00;102904.16;4899636;28;20047;-81
2021/12/17 09:57:08;;;;;;;14.13;2.58;;;5.80;99.90;;;4.16;100.00;102898.97;4916267;28;20050;-82
2021/12/17 09:59:46;;;;;;;19.70;1.83;;;5.90;99.90;;;4.14;100.00;102895.44;4918998;28;20050;-82
2021/12/17 10:02:12;;;;;;;15.23;2.92;;;5.90;99.90;;;4.21;100.00;102910.31;4912356;28;20034;-82
2021/12/17 10:04:45;;;;;;;12.20;2.63;;;6.00;99.90;;;4.26;100.00;102914.75;4882413;28;20045;-81
2021/12/17 10:07:27;;;;;;;11.07;2.25;;;6.00;99.90;;;4.30;100.00;102895.69;4893911;28;20029;-82
2021/12/17 10:10:05;;;;;;;21.30;3.28;;;6.10;99.90;;;4.35;100.00;102900.09;4912257;28;20062;-81
2021/12/17 10:12:34;;;;;;;14.93;2.95;;;;;;;4.32;100.00;102890.50;4901485;28;20458;-82
2021/12/17 10:15:09;;;;;;;25.10;2.70;;;6.10;99.90;;;4.35;100.00;102893.16;4914666;28;20089;-81
2021/12/17 10:17:52;;;;;;;20.80;2.78;;;6.00;99.90;;;4.26;100.00;102885.22;4882140;28;20069;-82
2021/12/17 10:20:21;;;;;;;17.50;3.10;;;5.90;99.90;;;4.21;100.00;102879.03;4908327;28;20034;-82
2021/12/17 10:23:00;;;;;;;18.40;3.28;;;6.00;99.90;;;4.22;100.00;102879.06;4905847;28;20040;-82
2021/12/17 10:25:49;;;;;;;26.35;3.08;;;6.00;99.90;;;4.24;100.00;102887.78;4901167;28;20050;-82
2021/12/17 10:28:16;;;;;;;14.68;2.65;;;5.20;99.90;;;4.20;100.00;102878.16;4921994;28;20027;-83
2021/12/17 10:30:46;;;;;;;13.15;2.08;;;6.00;99.90;;;4.23;100.00;102888.66;4935373;28;20483;-82
2021/12/17 10:33:24;;;;;;;23.38;2.78;;;5.90;99.90;;;4.19;100.00;102876.44;4877322;28;20084;-82
2021/12/17 10:36:03;;;;;;;15.40;2.92;;;5.90;99.90;;;4.20;100.00;102880.78;4927636;28;20045;-82
2021/12/17 10:38:29;;;;;;;18.08;2.45;;;5.90;99.90;;;4.15;100.00;102872.00;4905688;28;22181;-82
2021/12/17 10:41:07;;;;;;;24.92;3.00;;;5.90;99.90;;;4.16;100.00;102862.44;4904273;28;20022;-83
2021/12/17 10:43:49;;;;;;;25.25;3.15;;;5.90;99.90;;;4.21;100.00;102877.31;4897467;28;20155;-82
2021/12/17 10:46:27;;;;;;;15.18;2.38;;;5.90;99.90;;;4.15;100.00;102864.19;4881064;28;20019;-82
2021/12/17 10:54:22;;;;;;;19.42;3.28;;;5.90;99.90;;;4.18;100.00;102866.84;4924611;28;20030;-82
2021/12/17 10:56:54;;;;;;;16.70;2.88;;;5.90;99.90;;;4.11;100.00;102867.59;4894045;28;20075;-82
2021/12/17 10:59:26;;;;;;;19.13;2.78;;;;;;;4.10;100.00;102876.25;4893637;28;20041;-81
2021/12/17 11:02:11;;;;;;;15.15;2.47;;;5.80;99.90;;;4.06;100.00;102871.84;4893107;28;20495;-82
2021/12/17 11:04:51;;;;;;;14.82;2.75;;;5.80;99.90;;;4.01;100.00;102868.31;4919331;28;20536;-83
2021/12/17 11:07:19;;;;;;;10.40;2.75;;;5.70;99.90;;;3.99;100.00;102865.69;4913187;28;20061;-81
2021/12/17 11:09:58;;;;;;;19.02;2.85;;;5.70;99.90;;;4.00;100.00;102866.59;4888286;28;20018;-82
2021/12/17 11:12:30;;;;;;;16.48;2.00;;;5.70;99.90;;;3.96;100.00;102852.63;4930939;28;20030;-83
2021/12/17 11:15:24;;;;;;;20.70;2.63;;;5.80;99.90;;;4.06;100.00;102864.94;4888764;28;20519;-82
2021/12/17 11:17:57;;;;;;;15.30;1.88;;;5.80;99.90;;;4.08;100.00;102851.91;4931375;28;20033;-82
2021/12/17 11:20:35;;;;;;;14.77;2.92;;;5.80;99.90;;;4.07;100.00;102844.94;4924713;28;20038;-82
2021/12/17 11:23:15;;;;;;;11.23;2.05;;;5.80;99.90;;;4.12;100.00;102845.88;4886630;28;20058;-83
2021/12/17 11:25:48;;;;;;;32.47;2.58;;;;;;;4.13;100.00;102842.44;4903201;28;20033;-83
2021/12/17 11:28:15;;;;;;;11.95;2.40;;;5.90;99.90;;;4.12;100.00;102832.84;4911704;28;20030;-82
2021/12/17 11:30:55;;;;;;;14.07;2.58;;;5.80;99.90;;;4.09;100.00;102828.47;4920918;28;20042;-82
2021/12/17 11:33:21;;;;;;;8.20;2.08;;;;;;;4.12;100.00;102832.84;4915335;28;20061;-82
2021/12/17 11:35:50;;;;;;;16.52;2.53;;;5.80;99.90;;;4.09;100.00;102833.69;4896591;28;20096;-82
2021/12/17 11:38:42;;;;;;;13.65;2.25;;;5.80;99.90;;;4.06;100.00;102822.31;4870985;28;20032;-83
2021/12/17 11:41:23;;;;;;;20.38;2.63;;;;;;;3.99;100.00;102821.38;4921304;28;20027;-81
2021/12/17 11:44:08;;;;;;;16.27;1.98;;;5.80;99.90;;;4.04;100.00;102824.94;4900543;28;20035;-80
2021/12/17 11:46:34;;;;;;;41.85;3.42;;;5.70;99.90;;;4.00;100.00;102814.44;4923278;28;20034;-82
2021/12/17 11:49:15;;;;;;;12.02;2.28;;;5.70;99.90;;;4.03;100.00;102827.50;4880664;28;20044;-81
2021/12/17 11:51:55;;;;;;;11.02;2.40;;;5.70;99.90;;;4.03;100.00;102833.59;4867509;28;20030;-82
2021/12/17 11:54:35;;;;;;;14.10;2.30;;;5.80;99.90;;;4.06;100.00;102843.19;4894377;28;20041;-81
2021/12/17 11:57:17;;;;;;;17.08;2.33;;;5.70;99.90;;;3.96;100.00;102825.69;4935474;28;20063;-81
2021/12/17 11:59:48;;;;;;;9.88;2.63;;;;;;;3.98;100.00;102832.66;4929413;28;20073;-80
2021/12/17 12:02:26;;;;;;;14.27;2.80;;;5.70;99.90;;;3.95;100.00;102834.34;4884125;28;20117;-82
2021/12/17 12:05:06;;;;;;;11.05;2.42;;;;;;;3.95;100.00;102826.53;4881484;28;20506;-83
2021/12/17 12:07:37;;;;;;;15.23;3.10;;;5.70;99.90;;;3.97;100.00;102825.69;4924200;28;20048;-81
2021/12/17 12:10:14;;;;;;;23.15;2.78;;;;;;;4.00;100.00;102822.25;4887217;28;20039;-81
2021/12/17 12:12:50;;;;;;;27.45;3.47;;;;;;;4.05;100.00;102824.06;4895740;28;20135;-82
2021/12/17 12:15:28;;;;;;;;;;;5.80;99.90;;;4.04;100.00;102827.53;4902182;28;20515;-81
2021/12/17 12:17:57;;;;;;;13.43;2.65;;;5.70;99.90;;;4.05;100.00;102824.06;4879491;28;19930;-82
2021/12/17 12:20:48;;;;;;;9.70;1.52;;;5.70;99.90;;;4.03;100.00;102822.28;4919441;28;20053;-81
2021/12/17 12:23:30;;;;;;;13.98;2.17;;;5.80;99.90;;;4.04;100.00;102830.16;4922030;28;20108;-81
2021/12/17 12:26:11;;;;;;;16.17;2.03;;;5.80;99.90;;;4.01;100.00;102817.06;4916112;28;20049;-81
2021/12/17 12:28:52;;;;;;;11.05;2.28;;;;;;;3.99;100.00;102818.75;4881998;28;20110;-85
2021/12/17 12:31:30;;;;;;;16.85;2.08;;;5.70;99.90;;;4.02;100.00;102817.94;4925913;28;20107;-82
2021/12/17 12:36:58;;;;;;;15.95;2.47;;;5.70;99.90;;;3.99;100.00;102807.47;4897033;28;21526;-81
2021/12/17 12:39:30;;;;;;;9.88;2.00;;;5.70;99.90;;;3.99;100.00;102799.66;4929576;28;20033;-80
2021/12/17 12:42:02;;;;;;;18.02;2.40;;;5.70;99.90;;;4.04;100.00;102803.19;4894839;28;20126;-83
2021/12/17 12:44:57;;;;;;;17.08;3.58;;;5.70;99.90;;;4.02;100.00;102797.09;4927091;28;20123;-80
2021/12/17 12:47:29;;;;;;;21.52;2.50;;;5.70;99.90;;;4.03;100.00;102806.66;4898676;28;20474;-82
2021/12/17 12:50:11;;;;;;;14.82;2.40;;;5.70;99.90;;;4.00;100.00;102780.56;4931967;28;20024;-81
2021/12/17 12:53:09;;;;;;;16.70;2.53;;;5.70;99.90;;;3.97;100.00;102789.19;4936293;28;20035;-80
2021/12/17 12:55:48;;;;;;;13.45;2.65;;;5.70;99.90;;;3.95;100.00;102775.25;4864611;28;22240;-81
2021/12/17 12:58:30;;;;;;;18.48;2.58;;;5.70;99.90;;;4.00;100.00;102771.00;4915168;28;20031;-82
2021/12/17 13:01:00;;;;;;;11.90;3.08;;;7.60;99.90;;;4.03;100.00;102775.38;4897072;28;20038;-81
2021/12/17 13:03:37;;;;;;;14.52;2.13;;;5.80;99.90;;;4.09;100.00;102791.09;4885500;28;20034;-82
2021/12/17 13:06:04;;;;;;;11.27;2.40;;;5.80;99.90;;;4.07;100.00;102785.84;4876280;28;20029;-81
2021/12/17 13:08:39;;;;;;;13.20;2.92;;;;;;;4.13;100.00;102792.03;4907800;28;20046;-82
2021/12/17 13:11:07;;;;;;;14.40;2.28;;;5.80;99.90;;;4.09;100.00;102801.53;4889080;28;20082;-82
2021/12/17 13:13:51;;;;;;;15.23;2.45;;;5.80;99.90;;;4.13;100.00;102798.13;4880937;28;20095;-81
2021/12/17 13:16:34;;;;;;;24.27;2.50;;;;;;;4.10;100.00;102790.22;4915643;28;20406;-82
2021/12/17 13:24:36;;;;;;;15.32;1.92;;;5.80;99.90;;;4.16;100.00;102807.69;4883520;28;20027;-82
2021/12/17 13:27:12;;;;;;;16.05;2.50;;;5.90;99.90;;;4.13;100.00;102808.53;4915015;28;20029;-81
2021/12/17 13:29:43;;;;;;;22.77;2.65;;;5.90;99.90;;;4.19;100.00;102837.31;4917292;28;20042;-81
2021/12/17 13:32:20;;;;;;;16.33;3.15;;;5.90;99.90;;;4.25;100.00;102855.63;4899368;28;20035;-82
2021/12/17 13:34:57;;;;;;;15.13;2.72;;;5.90;99.90;;;4.22;100.00;102850.38;4854673;28;20560;-82
2021/12/17 13:37:34;;;;;;;8.93;2.17;;;5.90;99.90;;;4.19;100.00;102834.69;4913616;28;20430;-82
2021/12/17 13:40:03;;;;;;;16.90;2.50;;;5.90;99.90;;;4.21;100.00;102826.88;4885595;28;20041;-82
2021/12/17 13:42:34;;;;;;;14.07;3.13;;;5.90;99.90;;;4.21;100.00;102838.22;4908714;28;20087;-82